EDT,Max TemperatureF,Mean TemperatureF,Min TemperatureF,Max Dew PointF,MeanDew PointF,Min DewpointF,Max Humidity, Mean Humidity, Min Humidity, Max Sea Level PressureIn, Mean Sea Level PressureIn, Min Sea Level PressureIn, Max VisibilityMiles, Mean VisibilityMiles, Min VisibilityMiles, Max Wind SpeedMPH, Mean Wind SpeedMPH, Max Gust SpeedMPH,PrecipitationIn, CloudCover, Events, WindDirDegrees
2013-9-1,87,78,69,72,70,66,100,83,61,29.86,29.82,29.77,10,6,2,8,2,,0.00,4,,152
2013-9-2,87,79,71,72,69,63,94,82,51,29.80,29.76,29.71,10,7,1,17,3,23,0.42,3,Rain-Thunderstorm,300
2013-9-3,80,72,63,68,60,53,96,68,43,29.95,29.83,29.73,10,9,4,14,7,22,0.00,1,,317
2013-9-4,80,67,55,56,54,53,93,65,40,30.07,30.02,29.96,10,10,9,10,7,18,0.00,0,,280
2013-9-5,79,68,57,59,53,44,87,64,32,30.17,30.04,30.00,10,10,9,15,5,20,0.00,1,,332
2013-9-6,71,60,48,48,42,36,83,54,29,30.28,30.22,30.16,10,10,10,10,6,,0.00,0,,5
2013-9-7,79,62,46,58,49,44,93,65,32,30.16,30.05,29.93,10,10,10,10,2,,0.00,0,,227
2013-9-8,82,69,57,63,58,47,90,68,48,30.09,29.94,29.89,10,9,5,16,5,21,0.00,3,Rain,336
2013-9-9,73,60,46,63,52,43,87,71,57,30.23,30.17,30.12,10,10,10,9,3,,0.00,4,,155
2013-9-10,91,78,66,73,68,63,94,77,50,30.18,30.13,30.06,10,8,6,12,5,20,0.00,4,,197
2013-9-11,93,80,68,73,70,66,100,82,49,30.15,30.10,29.99,10,4,0,13,2,18,0.00,1,Fog,195
2013-9-12,86,76,68,72,69,64,96,85,61,29.97,29.85,29.75,10,5,0,23,3,32,0.31,4,Fog-Rain-Thunderstorm,263
2013-9-13,75,66,57,68,56,47,96,71,46,29.93,29.77,29.69,10,8,2,17,7,25,0.01,4,,322
2013-9-14,64,56,48,47,45,44,86,70,50,30.17,30.06,29.94,10,10,10,13,7,18,0.00,4,,333
2013-9-15,73,58,43,54,48,41,97,72,44,30.25,30.16,30.09,10,9,6,9,2,,0.00,0,,199
2013-9-16,71,64,54,58,54,48,94,77,51,30.27,30.12,30.05,10,8,1,13,4,21,0.18,5,Rain,357
2013-9-17,66,54,43,46,40,38,83,62,39,30.45,30.38,30.30,10,10,10,12,4,18,0.00,0,,39
2013-9-18,70,56,42,48,43,40,97,69,38,30.36,30.29,30.20,10,10,5,7,2,,0.00,0,,161
2013-9-19,75,58,42,55,49,41,96,71,41,30.21,30.15,30.08,10,9,6,6,1,,0.00,0,,183
2013-9-20,79,64,50,58,53,48,100,82,47,30.10,30.06,29.97,10,5,0,12,2,,0.00,1,Fog,160
2013-9-21,75,65,55,64,59,53,100,85,55,29.98,29.80,29.69,10,7,2,18,7,28,0.82,6,Rain,182
2013-9-22,68,60,53,61,52,42,100,80,45,29.96,29.80,29.71,10,8,2,17,6,26,0.01,4,,312
2013-9-23,64,55,46,44,42,39,83,62,46,30.09,30.04,29.97,10,10,10,14,7,24,0.00,3,,339
2013-9-24,71,54,39,46,43,38,93,67,39,30.12,30.03,29.95,10,10,10,10,5,,0.00,0,,313
2013-9-25,73,58,43,48,44,40,93,66,31,29.99,29.95,29.89,10,10,10,6,1,,0.00,0,,317
2013-9-26,73,60,46,56,50,45,93,71,44,30.08,30.01,29.94,10,10,10,5,1,,0.00,3,,110
2013-9-27,73,64,55,56,53,47,90,73,42,30.26,30.18,30.09,10,9,5,10,4,,0.00,4,,77
2013-9-28,72,62,54,54,50,47,93,70,44,30.33,30.27,30.24,10,10,8,7,1,,0.00,4,,94
2013-9-29,71,58,46,53,49,44,96,74,45,30.23,30.15,30.09,10,10,6,8,2,,0.00,2,,135
2013-9-30,73,60,48,53,50,47,100,77,39,30.10,30.06,29.99,10,7,2,7,1,,0.00,1,,157